Time;durP1;ratioP1;P1;durP2;ratioP2;P2;SDS_P1;SDS_P2;PMS_P1;PMS_P2;Temp;Humidity;BMP_temperature;BMP_pressure;BME280_temperature;BME280_humidity;BME280_pressure;Samples;Min_cycle;Max_cycle;Signal;HPM_P1;HPM_P2
2024/01/11 00:03:39;;;;;;;0.10;0.10;;;;;;;-6.37;67.13;102749.78;15655338;28;20045;-51
2024/01/11 00:11:14;;;;;;;0.22;0.17;;;;;;;-6.45;66.20;102716.06;15656223;28;20405;-51
2024/01/11 00:18:47;;;;;;;0.20;0.20;;;;;;;-7.26;68.42;102715.22;15664407;28;20055;-51
2024/01/11 00:26:22;;;;;;;6.00;2.47;;;;;;;-7.11;68.02;102662.56;15672423;28;20041;-51
2024/01/11 00:33:56;;;;;;;1.23;1.13;;;;;;;-7.05;67.47;102726.75;15673856;28;20501;-51
2024/01/11 00:41:30;;;;;;;0.10;0.10;;;;;;;-6.80;67.06;102721.63;15672711;28;20029;-51
2024/01/11 00:49:04;;;;;;;0.13;0.13;;;;;;;-6.97;67.73;102698.66;15672618;28;20045;-52
2024/01/11 00:56:39;;;;;;;0.20;0.20;;;;;;;-7.45;70.09;102696.69;15674424;28;20524;-48
2024/01/11 01:04:13;;;;;;;0.38;0.38;;;;;;;-7.12;68.41;102692.16;15666737;28;20359;-51
2024/01/11 01:11:48;;;;;;;0.28;0.28;;;;;;;-7.19;68.67;102675.00;15684617;28;20045;-52
2024/01/11 01:19:21;;;;;;;1.48;1.40;;;;;;;-7.70;70.13;102673.06;15653894;28;20486;-49
2024/01/11 01:26:56;;;;;;;0.15;0.15;;;;;;;-7.74;70.71;102680.16;15669866;28;20518;-50
2024/01/11 01:34:29;;;;;;;0.10;0.10;;;;;;;-7.51;70.39;102647.28;15675543;28;20041;-51
2024/01/11 01:42:05;;;;;;;0.15;0.15;;;;;;;-7.89;73.24;102666.69;15643892;28;20037;-49
2024/01/11 01:49:39;;;;;;;0.10;0.10;;;;;;;-7.63;71.84;102640.72;15681888;28;20139;-51
2024/01/11 01:57:16;;;;;;;0.10;0.10;;;;;;;-7.35;71.27;102653.75;15681167;28;20037;-50
2024/01/11 02:04:53;;;;;;;3.30;1.55;;;;;;;-7.37;70.42;102645.09;15682256;28;20132;-56
2024/01/11 02:12:28;;;;;;;0.43;0.43;;;;;;;-7.36;71.63;102643.38;15687695;28;20048;-51
2024/01/11 02:20:03;;;;;;;0.40;0.40;;;;;;;-7.51;71.78;102670.75;15666854;28;20474;-48
2024/01/11 02:27:48;;;;;;;0.15;0.15;;;;;;;-7.50;71.57;102670.75;15681873;28;20437;-48
2024/01/11 02:35:24;;;;;;;0.10;0.10;;;;;;;-7.58;73.04;102684.91;15679875;28;20118;-47
2024/01/11 02:42:59;;;;;;;0.10;0.10;;;;;;;-7.11;71.43;102680.81;15678497;28;20033;-51
2024/01/11 02:50:33;;;;;;;0.10;0.10;;;;;;;-7.37;74.23;102692.06;15675153;28;20477;-48
2024/01/11 02:58:08;;;;;;;0.10;0.10;;;;;;;-7.06;73.73;102681.53;15677368;28;20049;-52
2024/01/11 03:05:44;;;;;;;0.10;0.10;;;;;;;-6.92;75.25;102678.47;15672961;28;20124;-49
2024/01/11 03:13:19;;;;;;;0.10;0.10;;;;;;;-7.06;76.50;102651.97;15657926;28;20420;-48
2024/01/11 03:20:53;;;;;;;0.10;0.10;;;;;;;-7.20;76.63;102658.47;15650681;28;20057;-50
2024/01/11 03:28:28;;;;;;;0.10;0.10;;;;;;;-6.95;76.60;102683.78;15657612;28;20508;-49
2024/01/11 03:36:07;;;;;;;0.10;0.10;;;;;;;-6.94;75.91;102670.72;15676947;28;20049;-48
2024/01/11 03:43:43;;;;;;;0.10;0.10;;;;;;;-7.20;76.00;102662.84;15656982;28;20029;-54
2024/01/11 03:51:18;;;;;;;0.10;0.10;;;;;;;-6.90;77.29;102658.41;15655323;28;20041;-50
2024/01/11 03:58:54;;;;;;;0.08;0.08;;;;;;;-7.76;78.92;102629.78;15673177;28;20102;-47
2024/01/11 04:06:28;;;;;;;0.10;0.10;;;;;;;-7.78;79.74;102605.53;15673494;28;20421;-50
2024/01/11 04:14:03;;;;;;;0.10;0.10;;;;;;;-7.89;79.57;102615.41;15673567;28;20048;-47
2024/01/11 04:21:38;;;;;;;0.10;0.10;;;;;;;-6.76;77.39;102630.09;15672726;28;20045;-50
2024/01/11 04:29:16;;;;;;;0.10;0.10;;;;;;;-6.45;75.90;102634.22;15672637;28;20165;-54
2024/01/11 04:36:51;;;;;;;0.10;0.10;;;;;;;-6.88;75.62;102632.25;15653842;28;20128;-49
2024/01/11 04:44:26;;;;;;;0.10;0.10;;;;;;;-6.78;77.25;102655.38;15655413;28;20029;-48
2024/01/11 04:52:00;;;;;;;0.13;0.13;;;;;;;-6.74;77.58;102632.63;15655485;28;20189;-48
2024/01/11 04:59:36;;;;;;;0.10;0.10;;;;;;;-6.21;76.83;102629.88;15674424;28;20414;-49
2024/01/11 05:07:12;;;;;;;0.10;0.10;;;;;;;-6.21;76.54;102609.84;15657944;28;20045;-50
2024/01/11 05:14:47;;;;;;;0.10;0.10;;;;;;;-5.81;77.74;102589.16;15684179;28;20049;-50
2024/01/11 05:22:21;;;;;;;0.10;0.10;;;;;;;-6.06;79.39;102561.38;15682496;28;20139;-50
2024/01/11 05:29:58;;;;;;;0.10;0.10;;;;;;;-6.46;82.20;102604.66;15684194;28;20589;-52
2024/01/11 05:37:31;;;;;;;0.00;0.00;;;;;;;-6.61;82.70;102606.97;15682912;28;20045;-52
2024/01/11 05:45:07;;;;;;;0.10;0.10;;;;;;;-6.44;83.96;102615.03;15666143;28;20044;-51
2024/01/11 05:52:42;;;;;;;0.00;0.00;;;;;;;-5.51;82.02;102611.50;15682936;28;20037;-49
2024/01/11 06:00:19;;;;;;;0.10;0.10;;;;;;;-5.70;82.19;102603.53;15684194;28;20044;-48
2024/01/11 06:07:58;;;;;;;0.10;0.10;;;;;;;-5.39;80.87;102584.00;15682468;28;20044;-52
2024/01/11 06:15:33;;;;;;;0.08;0.08;;;;;;;-5.66;83.31;102589.41;15682729;28;20051;-48
2024/01/11 06:23:06;;;;;;;0.00;0.00;;;;;;;-5.85;84.25;102587.59;15679307;28;20048;-57
2024/01/11 06:30:43;;;;;;;0.10;0.10;;;;;;;-5.78;85.11;102570.72;15663179;28;20056;-48
2024/01/11 06:38:17;;;;;;;0.00;0.00;;;;;;;-5.05;83.59;102583.47;15681219;28;20041;-51
2024/01/11 06:45:52;;;;;;;0.38;0.38;;;;;;;-5.33;83.67;102590.75;15643674;28;20048;-48
2024/01/11 06:53:26;;;;;;;0.00;0.00;;;;;;;-5.38;84.17;102570.84;15679387;28;20357;-48
2024/01/11 07:01:05;;;;;;;2.90;2.65;;;;;;;-5.45;84.79;102521.47;15682013;28;20417;-50
2024/01/11 07:08:39;;;;;;;0.10;0.10;;;;;;;-5.10;84.52;102558.41;15682054;28;20452;-50
2024/01/11 07:16:14;;;;;;;0.00;0.00;;;;;;;-5.07;83.32;102571.38;15678178;28;20124;-49
2024/01/11 07:23:48;;;;;;;0.00;0.00;;;;;;;-5.06;84.35;102558.22;15658854;28;20057;-49
2024/01/11 07:31:27;;;;;;;0.00;0.00;;;;;;;-5.09;84.48;102560.09;15664624;28;20076;-49
2024/01/11 07:39:02;;;;;;;0.47;0.47;;;;;;;-4.89;84.42;102554.88;15659580;28;20148;-48
2024/01/11 07:46:38;;;;;;;0.00;0.00;;;;;;;-4.97;84.24;102560.44;15674380;28;20395;-51
2024/01/11 07:54:12;;;;;;;0.10;0.10;;;;;;;-4.88;85.24;102567.91;15676126;28;20033;-48
2024/01/11 08:01:49;;;;;;;0.08;0.08;;;;;;;-4.46;83.14;102580.06;15664864;28;20506;-50
2024/01/11 08:09:26;;;;;;;0.00;0.00;;;;;;;-4.96;83.50;102554.28;15638646;28;20629;-52
2024/01/11 08:17:03;;;;;;;0.10;0.10;;;;;;;-5.16;85.19;102556.91;15674192;28;20045;-51
2024/01/11 08:24:36;;;;;;;0.10;0.10;;;;;;;-5.02;84.14;102548.47;15675572;28;20160;-50
2024/01/11 08:32:11;;;;;;;0.17;0.17;;;;;;;-5.18;84.26;102561.31;15677498;28;20041;-52
2024/01/11 08:39:46;;;;;;;0.00;0.00;;;;;;;-4.59;82.81;102565.78;15656563;28;20043;-50
2024/01/11 08:47:24;;;;;;;0.00;0.00;;;;;;;-5.04;84.87;102551.13;15680179;28;20041;-53
2024/01/11 08:54:58;;;;;;;0.00;0.00;;;;;;;-4.65;84.44;102548.56;15667976;28;20044;-52
2024/01/11 09:02:33;;;;;;;0.03;0.03;;;;;;;-4.50;84.07;102549.66;15685370;28;20099;-52
2024/01/11 09:10:09;;;;;;;0.20;0.20;;;;;;;-5.15;84.86;102543.72;15685628;28;20045;-50
2024/01/11 09:17:46;;;;;;;0.57;0.57;;;;;;;-4.75;85.39;102523.72;15686443;28;20119;-50
2024/01/11 09:25:23;;;;;;;0.22;0.22;;;;;;;-4.60;84.85;102518.69;15684639;28;20033;-50
2024/01/11 09:32:58;;;;;;;0.10;0.10;;;;;;;-4.39;84.72;102508.09;15683599;28;20144;-49
2024/01/11 09:40:36;;;;;;;0.00;0.00;;;;;;;-4.78;86.05;102522.97;15665544;28;20049;-50
2024/01/11 09:48:14;;;;;;;0.80;0.75;;;;;;;-4.31;85.77;102514.75;15663374;28;20032;-51
2024/01/11 09:55:49;;;;;;;0.00;0.00;;;;;;;-4.02;83.06;102529.13;15682115;28;20075;-50
2024/01/11 10:03:26;;;;;;;0.10;0.10;;;;;;;-4.40;84.01;102521.25;15664562;28;20037;-50
2024/01/11 10:10:59;;;;;;;0.00;0.00;;;;;;;-4.06;84.14;102553.78;15683387;28;20067;-50
2024/01/11 10:18:35;;;;;;;0.00;0.00;;;;;;;-4.05;83.47;102537.16;15682146;28;20080;-51
2024/01/11 10:26:11;;;;;;;1.05;1.05;;;;;;;-4.33;85.34;102527.09;15681517;28;20888;-51
2024/01/11 10:33:46;;;;;;;0.00;0.00;;;;;;;-3.92;84.29;102504.16;15682204;28;20069;-50
2024/01/11 10:41:21;;;;;;;0.00;0.00;;;;;;;-4.19;85.89;102495.84;15679258;28;20068;-52
2024/01/11 10:49:00;;;;;;;0.00;0.00;;;;;;;-3.72;84.25;102488.34;15662361;28;20517;-51
2024/01/11 10:56:38;;;;;;;0.00;0.00;;;;;;;-3.63;84.96;102472.13;15662645;28;20056;-53
2024/01/11 11:04:16;;;;;;;0.00;0.00;;;;;;;-3.17;83.14;102492.59;15681432;28;20041;-51
2024/01/11 11:11:50;;;;;;;1.95;1.33;;;;;;;-3.44;83.52;102487.81;15678883;28;20048;-51
2024/01/11 11:19:25;;;;;;;0.10;0.10;;;;;;;-2.99;82.85;102482.91;15681480;28;20048;-53
2024/01/11 11:26:59;;;;;;;0.13;0.13;;;;;;;-3.26;83.68;102490.47;15680782;28;20413;-53
2024/01/11 11:34:44;;;;;;;0.00;0.00;;;;;;;-3.03;83.31;102487.50;15621204;28;20053;-53
2024/01/11 11:42:18;;;;;;;0.40;0.40;;;;;;;-2.73;82.90;102506.06;15657608;28;20041;-52
2024/01/11 11:50:04;;;;;;;0.38;0.38;;;;;;;-2.34;81.96;102531.16;15661213;28;20529;-50
2024/01/11 11:57:38;;;;;;;0.00;0.00;;;;;;;-2.28;81.18;102517.69;15680827;28;20123;-50
2024/01/11 12:05:13;;;;;;;0.00;0.00;;;;;;;-2.69;83.33;102504.97;15657428;28;20408;-50
2024/01/11 12:12:48;;;;;;;0.00;0.00;;;;;;;-2.94;83.01;102497.53;15675980;28;20045;-49
2024/01/11 12:20:23;;;;;;;0.00;0.00;;;;;;;-2.92;83.89;102500.06;15678016;28;20056;-52
2024/01/11 12:27:57;;;;;;;0.00;0.00;;;;;;;-2.40;82.51;102515.72;15668835;22;20536;-49
2024/01/11 12:35:33;;;;;;;0.00;0.00;;;;;;;-3.04;85.12;102495.44;15673724;28;20130;-48
2024/01/11 12:43:08;;;;;;;0.08;0.08;;;;;;;-2.53;84.11;102478.72;15656713;28;20045;-52
2024/01/11 12:50:43;;;;;;;0.20;0.20;;;;;;;-2.70;84.31;102463.88;15663038;28;20045;-48
2024/01/11 12:58:22;;;;;;;0.00;0.00;;;;;;;-2.58;84.39;102472.84;15675605;28;20111;-48
2024/01/11 13:05:59;;;;;;;0.10;0.10;;;;;;;-3.10;85.86;102454.59;15674837;28;20041;-50
2024/01/11 13:13:36;;;;;;;0.00;0.00;;;;;;;-3.23;86.09;102435.13;15675472;28;20045;-47
2024/01/11 13:21:12;;;;;;;0.95;0.60;;;;;;;-2.99;86.55;102435.63;15675424;28;20134;-48
2024/01/11 13:28:46;;;;;;;0.57;0.57;;;;;;;-2.93;86.82;102428.28;15675345;28;20067;-49
2024/01/11 13:36:21;;;;;;;0.00;0.00;;;;;;;-2.77;85.88;102419.59;15685936;28;20513;-47
2024/01/11 13:43:55;;;;;;;2.03;1.88;;;;;;;-2.39;84.99;102399.09;15667514;28;20037;-48
2024/01/11 13:51:31;;;;;;;1.60;1.50;;;;;;;-2.58;85.58;102378.22;15682501;28;20052;-50
2024/01/11 13:59:05;;;;;;;0.20;0.20;;;;;;;-2.71;85.93;102396.44;15682101;28;20037;-48
2024/01/11 14:06:40;;;;;;;0.88;0.82;;;;;;;-2.48;86.00;102403.06;15666060;28;20045;-49
2024/01/11 14:14:14;;;;;;;0.82;0.82;;;;;;;-2.60;86.48;102406.38;15683027;28;20049;-50
2024/01/11 14:21:50;;;;;;;0.00;0.00;;;;;;;-2.31;85.48;102400.34;15680503;28;20079;-51
2024/01/11 14:29:24;;;;;;;0.43;0.43;;;;;;;-2.32;85.84;102408.34;15662114;28;20049;-49
2024/01/11 14:36:58;;;;;;;0.00;0.00;;;;;;;-2.21;85.14;102420.88;15645569;28;20128;-49
2024/01/11 14:44:31;;;;;;;0.10;0.10;;;;;;;-2.22;85.51;102419.19;15679215;28;20556;-50
2024/01/11 14:52:07;;;;;;;0.25;0.25;;;;;;;-2.37;87.14;102405.13;15665039;28;20508;-50
2024/01/11 14:59:41;;;;;;;0.77;0.75;;;;;;;-2.19;85.66;102403.22;15664289;28;20525;-52
2024/01/11 15:07:19;;;;;;;0.60;0.60;;;;;;;-2.20;86.55;102409.41;15662763;28;20087;-48
2024/01/11 15:14:53;;;;;;;0.45;0.45;;;;;;;-1.72;84.95;102418.94;15680412;28;20045;-49
2024/01/11 15:22:27;;;;;;;0.20;0.20;;;;;;;-1.57;84.25;102436.47;15653694;28;20056;-53
2024/01/11 15:30:02;;;;;;;0.30;0.28;;;;;;;-1.03;83.22;102441.16;15599841;28;20515;-54
2024/01/11 15:37:39;;;;;;;0.00;0.00;;;;;;;-1.49;83.74;102409.69;15656784;28;20516;-48
2024/01/11 15:45:14;;;;;;;2.17;1.00;;;;;;;-1.39;84.18;102436.31;15631581;28;20120;-51
2024/01/11 15:52:51;;;;;;;1.65;1.00;;;;;;;-1.29;83.53;102432.19;15678011;28;20363;-51
2024/01/11 16:00:25;;;;;;;0.20;0.20;;;;;;;-1.19;83.66;102446.50;15677546;28;20044;-50
2024/01/11 16:08:01;;;;;;;2.85;1.55;;;;;;;-0.81;83.51;102444.19;15676891;28;20036;-50
2024/01/11 16:15:35;;;;;;;0.13;0.13;;;;;;;-1.10;84.60;102448.59;15658040;28;20053;-52
2024/01/11 16:23:10;;;;;;;0.03;0.03;;;;;;;-1.38;84.86;102467.00;15674664;28;20051;-51
2024/01/11 16:30:45;;;;;;;0.52;0.47;;;;;;;-0.86;83.32;102469.13;15675725;28;20049;-51
2024/01/11 16:38:21;;;;;;;0.43;0.43;;;;;;;-1.32;84.85;102471.88;15671663;28;20127;-54
2024/01/11 16:45:57;;;;;;;0.32;0.32;;;;;;;-0.77;82.93;102489.66;15665106;28;20504;-48
2024/01/11 16:53:32;;;;;;;0.30;0.30;;;;;;;-1.04;84.98;102508.81;15645095;28;20036;-53
2024/01/11 17:01:09;;;;;;;0.10;0.10;;;;;;;-0.30;83.19;102515.72;15666205;28;20466;-49
2024/01/11 17:08:44;;;;;;;5.78;0.95;;;;;;;-0.59;83.72;102514.91;15610813;28;20176;-48
2024/01/11 17:16:20;;;;;;;14.70;1.45;;;;;;;-0.58;84.55;102513.13;15655069;28;20067;-46
2024/01/11 17:23:54;;;;;;;0.22;0.22;;;;;;;-0.85;84.58;102495.38;15669301;28;20041;-48
2024/01/11 17:31:29;;;;;;;1.13;0.65;;;;;;;-0.55;83.48;102500.59;15622147;28;20049;-52
2024/01/11 17:39:04;;;;;;;0.55;0.55;;;;;;;-0.61;83.92;102495.69;15682978;28;20068;-49
2024/01/11 17:46:39;;;;;;;0.00;0.00;;;;;;;-0.43;82.28;102501.59;15678818;28;20083;-49
2024/01/11 17:54:15;;;;;;;0.00;0.00;;;;;;;-0.18;82.79;102508.00;15674487;28;20045;-49
2024/01/11 18:01:49;;;;;;;0.25;0.25;;;;;;;-0.36;83.29;102513.50;15675563;28;20060;-49
2024/01/11 18:09:23;;;;;;;;;;;;;;;0.13;82.42;102514.81;15679257;28;20079;-50
2024/01/11 18:16:57;;;;;;;0.00;0.00;;;;;;;-0.32;83.30;102514.16;15680423;28;19921;-50
2024/01/11 18:24:35;;;;;;;0.08;0.08;;;;;;;-0.35;85.03;102516.97;15659731;28;20043;-47
2024/01/11 18:32:09;;;;;;;0.85;0.85;;;;;;;-0.42;84.33;102510.38;15680358;28;20068;-47
2024/01/11 18:39:43;;;;;;;;;;;;;;;-0.47;85.25;102496.63;15676791;28;20054;-47
2024/01/11 18:47:17;;;;;;;3.80;2.70;;;;;;;-0.42;84.60;102503.34;15641396;28;19920;-46
2024/01/11 18:54:52;;;;;;;1.23;1.05;;;;;;;-0.90;86.42;102486.91;15619857;28;20136;-46
2024/01/11 19:02:25;;;;;;;0.00;0.00;;;;;;;-0.76;87.11;102499.25;15615863;28;20111;-50
2024/01/11 19:10:01;;;;;;;0.60;0.60;;;;;;;-0.39;85.14;102507.56;15624040;28;20489;-48
2024/01/11 19:17:35;;;;;;;0.45;0.45;;;;;;;-0.24;84.21;102493.38;15650855;28;20045;-46
2024/01/11 19:25:10;;;;;;;0.10;0.10;;;;;;;-0.27;84.46;102514.72;15619039;28;20490;-47
2024/01/11 19:32:45;;;;;;;1.52;1.42;;;;;;;0.46;82.19;102527.63;15673621;28;20059;-48
2024/01/11 19:40:20;;;;;;;0.75;0.75;;;;;;;-0.17;84.85;102536.94;15656524;28;20486;-47
2024/01/11 19:47:53;;;;;;;2.20;2.00;;;;;;;-0.35;84.60;102525.72;15670079;28;20486;-47
2024/01/11 19:55:28;;;;;;;0.45;0.45;;;;;;;-0.01;84.25;102534.16;15668667;28;20118;-48
2024/01/11 20:03:02;;;;;;;0.63;0.52;;;;;;;-0.34;85.44;102529.22;15668775;28;20049;-50
2024/01/11 20:10:38;;;;;;;0.15;0.10;;;;;;;-0.27;85.98;102506.78;15654054;28;20512;-48
2024/01/11 20:18:11;;;;;;;0.20;0.20;;;;;;;-0.14;84.73;102563.16;15655137;28;20036;-50
2024/01/11 20:25:49;;;;;;;0.35;0.35;;;;;;;-0.21;86.31;102566.25;15657387;28;20079;-49
2024/01/11 20:33:23;;;;;;;0.55;0.55;;;;;;;0.29;85.07;102575.41;15674403;28;20378;-50
2024/01/11 20:40:58;;;;;;;1.50;0.47;;;;;;;0.02;86.43;102578.00;15676204;28;20041;-50
2024/01/11 20:48:32;;;;;;;1.30;0.52;;;;;;;-0.01;86.92;102587.81;15673141;28;20453;-46
2024/01/11 20:56:07;;;;;;;0.05;0.05;;;;;;;0.36;85.64;102574.91;15656690;28;20049;-47
2024/01/11 21:03:43;;;;;;;1.20;0.95;;;;;;;0.33;84.64;102582.22;15646095;28;20045;-46
2024/01/11 21:11:20;;;;;;;3.67;1.65;;;;;;;0.20;85.15;102587.41;15666314;28;20037;-44
2024/01/11 21:18:53;;;;;;;0.45;0.45;;;;;;;0.58;83.75;102598.16;15657435;28;20052;-45
2024/01/11 21:26:31;;;;;;;0.05;0.05;;;;;;;0.34;84.13;102582.09;15661871;28;20052;-47
2024/01/11 21:34:04;;;;;;;1.55;1.45;;;;;;;0.15;85.14;102579.78;15660463;28;20052;-46
2024/01/11 21:41:40;;;;;;;0.93;0.45;;;;;;;0.35;85.72;102594.34;15660366;28;20525;-47
2024/01/11 21:49:18;;;;;;;0.65;0.45;;;;;;;1.04;83.17;102612.81;15659661;28;20052;-49
2024/01/11 21:56:56;;;;;;;0.10;0.10;;;;;;;0.78;83.33;102618.00;15671894;28;20076;-46
2024/01/11 22:04:31;;;;;;;0.00;0.00;;;;;;;0.96;82.52;102608.00;15670598;28;20051;-48
2024/01/11 22:12:07;;;;;;;1.05;1.00;;;;;;;0.97;83.70;102622.91;15660457;28;20132;-47
2024/01/11 22:19:41;;;;;;;0.10;0.10;;;;;;;0.97;82.52;102629.06;15679672;28;20041;-45
2024/01/11 22:27:17;;;;;;;0.45;0.45;;;;;;;0.96;82.53;102624.72;15679194;28;20280;-47
2024/01/11 22:34:50;;;;;;;0.35;0.35;;;;;;;0.82;83.11;102624.78;15676937;28;20103;-46
2024/01/11 22:42:25;;;;;;;0.63;0.63;;;;;;;0.95;82.92;102619.53;15679210;28;20057;-48
2024/01/11 22:49:59;;;;;;;0.20;0.20;;;;;;;1.05;84.03;102628.56;15673988;28;20051;-49
2024/01/11 22:57:33;;;;;;;;;;;;;;;1.38;82.04;102629.88;15676841;28;20087;-48
2024/01/11 23:05:07;;;;;;;0.00;0.00;;;;;;;1.27;82.58;102631.47;15673145;28;19931;-49
2024/01/11 23:12:43;;;;;;;0.28;0.20;;;;;;;0.88;83.69;102632.28;15653491;28;20053;-47
2024/01/11 23:20:19;;;;;;;0.00;0.00;;;;;;;0.54;84.81;102628.38;15670926;28;20103;-48
2024/01/11 23:27:54;;;;;;;0.35;0.35;;;;;;;0.71;85.71;102625.50;15670428;28;20045;-46
2024/01/11 23:35:28;;;;;;;2.13;1.20;;;;;;;0.84;85.24;102612.34;15669621;28;20071;-45
2024/01/11 23:43:02;;;;;;;;;;;;;;;0.61;84.75;102608.53;15669826;28;20071;-47
2024/01/11 23:50:36;;;;;;;0.80;0.52;;;;;;;0.45;86.79;102600.72;15667247;28;19925;-44
2024/01/11 23:58:11;;;;;;;1.98;1.38;;;;;;;0.86;85.30;102599.84;15650532;28;20052;-47
